Mercedes, Argentina
Current Conditions -  °F | °C
As of 5:00 PM on Thursday 18 Dec 2014 (Local Time) from SARL Reporting Station
Broken Clouds Broken Clouds  
Wind Chill: 30°   Ceiling: 20000
Heat Index: 30°   Visibility: 6mi
Dew Point: 16°   Wind: 5mph
Humidity: 43%   Direction: 180°S
Pressure: 29.8"   Gusts: NA
Location:  29.2°S, 58.08°W
Report Text: SARL 182000Z 18004KT 9999 SCT020 SCT100BKN200 30/16 Q1009
Loading
Personal Weather Stations






























Interactive Weather Map New forecast layout! Learn more

10-Day Weather Forecast

Advertisements
Track Severe Weather on mobile